Language selection

Weather shortcuts

Whitefish Bay: Past 24 Hour Conditions

 

Pukaskwa National Park

01:00 AM EDT 24 June 2024
Disclaimer

This table is a summary of hourly weather conditions for the past 24 hours.
Please note that these observations might not always be representative of weather conditions over their associated marine area.

Date / Time
(EDT)
Wind(knots) Conditions Visibility(km) Pressure(kPa) Air tempC) Relative humidity(%) Dew pointC) Humidex
24 June 2024
1:00 SSW 1 N/A N/A 101.1 11 93 9 *
0:00 WSW 2 N/A N/A 101.1 12 90 10 *
23 June 2024
23:00 SSW 2 N/A N/A 101.0 13 90 11 *
22:00 SSW 4 N/A N/A 101.0 13 89 12 *
21:00 SW 2 N/A N/A 101.0 14 84 11 *
20:00 SSW 5 N/A N/A 100.9 15 84 12 *
19:00 SSW 3 N/A N/A 100.9 16 91 15 *
18:00 SSW 4 N/A N/A 100.8 17 92 16 *
17:00 SW 2 N/A N/A 100.8 19 68 13 *
16:00 NW 6 N/A N/A 100.7 22 52 11 23
15:00 WNW 2 N/A N/A 100.6 22 55 13 25
14:00 calm N/A N/A 100.6 23 57 14 26
13:00 calm N/A N/A 100.6 24 55 15 28
12:00 NNW 3 N/A N/A 100.5 25 48 13 27
11:00 NE 6 N/A N/A 100.5 24 43 11 26
10:00 NE 3 N/A N/A 100.5 22 59 14 25
9:00 NE 4 N/A N/A 100.6 16 81 12 *
8:00 NE 5 N/A N/A 100.6 14 86 12 *
7:00 NE 5 N/A N/A 100.6 12 91 10 *
6:00 ENE 4 N/A N/A 100.5 11 89 9 *
5:00 NE 5 N/A N/A 100.6 12 88 10 *
4:00 NE 4 N/A N/A 100.6 12 85 9 *
3:00 NE 3 N/A N/A 100.7 13 82 10 *
2:00 NE 4 N/A N/A 100.7 13 80 10 *
1:00 NE 4 N/A N/A 100.8 14 77 10 *

Zoom-in to make a selection

Map of Great Lakes - Lake Superior marine weather areas Mid Superior - 45001 East Superior - 45004 West Superior - 45006 Slate Island - 45136 Lake Of the Woods - 45148 Kenora Airport Royal Island Armstrong Airport Caribou Island Marathon Airport Pukaskwa National Park Thunder Bay Airport Welcome Island Little Flatland Island Sault Ste. Marie Airport Wawa Airport
Legend:
buoy Buoy
land station Land Station

Great Lakes - Lake Superior Area

Another Region

Features

New Predicting and Alerting Coastal Flooding Program

Find out about coastal flooding coverage, forecasts and warnings in your region

Date modified: